Air Quality Table

TIMESTAMP NO2 O3 PM2.5 TEMP HUM AIRPRES WS WD NO
2022-01-21 05:00 N/A 86.94 µg/m3 3.82 µg/m3 10.63 °C N/A 1,009.94 mbar 0.83 m/s 291.2 Deg N/A
2022-01-21 04:00 N/A 90.11 µg/m3 3.77 µg/m3 10.95 °C N/A 1,010.29 mbar 0.91 m/s 294.42 Deg N/A
2022-01-21 03:00 N/A 90.03 µg/m3 6.13 µg/m3 11.27 °C N/A 1,010.79 mbar 1.24 m/s 301.42 Deg N/A
2022-01-21 02:00 N/A 86.37 µg/m3 6.77 µg/m3 11.26 °C N/A 1,011.00 mbar 1.13 m/s 292.67 Deg N/A
2022-01-21 01:00 N/A 88.22 µg/m3 6.36 µg/m3 11.59 °C N/A 1,011.42 mbar 1.26 m/s 301.93 Deg N/A
2022-01-21 00:00 N/A 83.4 µg/m3 9.48 µg/m3 11.98 °C N/A 1,011.85 mbar 1.39 m/s 287.42 Deg N/A
2022-01-20 23:00 N/A 67.18 µg/m3 9.35 µg/m3 11.03 °C N/A 1,012.18 mbar 0.69 m/s 302.91 Deg N/A
2022-01-20 22:00 N/A 67.18 µg/m3 10.61 µg/m3 10.94 °C N/A 1,012.32 mbar 0.42 m/s 306.67 Deg N/A
2022-01-20 21:00 N/A 44.23 µg/m3 8.42 µg/m3 10.89 °C N/A 1,012.28 mbar 0.48 m/s 283.8 Deg N/A
2022-01-20 20:00 N/A 61.81 µg/m3 7.89 µg/m3 11.55 °C N/A 1,012.29 mbar 0.54 m/s 295.75 Deg N/A
2022-01-20 19:00 N/A 54 µg/m3 5.98 µg/m3 12.17 °C N/A 1,012.18 mbar 0.68 m/s 292.95 Deg N/A
2022-01-20 18:00 N/A 48.74 µg/m3 5.36 µg/m3 12.78 °C N/A 1,012.05 mbar 0.7 m/s 301.63 Deg N/A
2022-01-20 17:00 N/A 68.45 µg/m3 4.69 µg/m3 13.78 °C N/A 1,012.03 mbar 1.09 m/s 319.61 Deg N/A
2022-01-20 16:00 N/A 75.11 µg/m3 3.24 µg/m3 14.19 °C N/A 1,012.08 mbar 0.95 m/s 330.45 Deg N/A
2022-01-20 15:00 N/A 79.73 µg/m3 5.9 µg/m3 15.19 °C N/A 1,012.36 mbar 1.06 m/s 325.93 Deg N/A
2022-01-20 14:00 N/A 79.49 µg/m3 3.54 µg/m3 14.58 °C N/A 1,013.04 mbar 1.25 m/s 343.85 Deg N/A
2022-01-20 13:00 N/A 77.16 µg/m3 3.75 µg/m3 14.53 °C N/A 1,013.74 mbar 1.25 m/s 324.91 Deg N/A
2022-01-20 12:00 N/A 69.36 µg/m3 5.6 µg/m3 13.71 °C N/A 1,014.85 mbar 1.19 m/s 313.33 Deg N/A
2022-01-20 11:00 N/A 72.57 µg/m3 7.27 µg/m3 14.61 °C N/A 1,015.11 mbar 1.51 m/s 293.47 Deg N/A
2022-01-20 10:00 N/A 63.56 µg/m3 13.85 µg/m3 14.18 °C N/A 1,015.05 mbar 1.3 m/s 265.02 Deg N/A
2022-01-20 09:00 N/A 19.74 µg/m3 17.7 µg/m3 12.14 °C N/A 1,015.12 mbar 0.69 m/s 245.63 Deg N/A
2022-01-20 08:00 N/A 2.12 µg/m3 9.31 µg/m3 9.57 °C N/A 1,015.51 mbar 0.4 m/s 276.28 Deg N/A
2022-01-20 07:00 N/A 13.08 µg/m3 4.41 µg/m3 9.88 °C N/A 1,015.47 mbar 0.49 m/s 294.17 Deg N/A
2022-01-20 06:00 N/A 36.19 µg/m3 3.33 µg/m3 9.73 °C N/A 1,015.36 mbar 0.59 m/s 285.29 Deg N/A
2022-01-20 05:00 N/A 59.9 µg/m3 2.61 µg/m3 9.94 °C N/A 1,015.52 mbar 0.9 m/s 279.97 Deg N/A
2022-01-20 04:00 N/A 55.06 µg/m3 2.41 µg/m3 10.56 °C N/A 1,016.00 mbar 0.61 m/s 279.8 Deg N/A
2022-01-20 03:00 N/A 58.08 µg/m3 3.24 µg/m3 10.79 °C N/A 1,016.48 mbar 0.62 m/s 288.75 Deg N/A
2022-01-20 02:00 N/A 55.96 µg/m3 3.9 µg/m3 9.95 °C N/A 1,016.84 mbar 0.75 m/s 289.03 Deg N/A
2022-01-20 01:00 N/A 53.39 µg/m3 3.45 µg/m3 9.71 °C N/A 1,017.13 mbar 0.62 m/s 280.48 Deg N/A
2022-01-20 00:00 N/A 51.04 µg/m3 7.02 µg/m3 10.11 °C N/A 1,017.53 mbar 0.75 m/s 285.23 Deg N/A
2022-01-19 23:00 N/A 48.91 µg/m3 10.12 µg/m3 10.53 °C N/A 1,017.85 mbar 0.52 m/s 275.8 Deg N/A
2022-01-19 22:00 N/A 41.63 µg/m3 14.43 µg/m3 11.33 °C N/A 1,018.01 mbar 0.33 m/s 251.23 Deg N/A
2022-01-19 21:00 N/A 25.7 µg/m3 13.05 µg/m3 11.63 °C N/A 1,018.08 mbar 0.35 m/s 214.02 Deg N/A
2022-01-19 20:00 N/A 22.67 µg/m3 9.31 µg/m3 12.12 °C N/A 1,017.99 mbar 0.51 m/s 214.29 Deg N/A
2022-01-19 19:00 N/A 44.9 µg/m3 5.3 µg/m3 12.08 °C N/A 1,018.06 mbar 0.87 m/s 159.07 Deg N/A
2022-01-19 18:00 N/A 64.64 µg/m3 7.02 µg/m3 12.93 °C N/A 1,017.66 mbar 1.79 m/s 175.37 Deg N/A
2022-01-19 17:00 N/A 72.01 µg/m3 5.51 µg/m3 14.16 °C N/A 1,017.36 mbar 1.78 m/s 198.37 Deg N/A
2022-01-19 16:00 N/A 77 µg/m3 4.01 µg/m3 14.71 °C N/A 1,017.40 mbar 2.01 m/s 213.12 Deg N/A
2022-01-19 15:00 N/A 78.14 µg/m3 6 µg/m3 14.47 °C N/A 1,017.77 mbar 1.74 m/s 216.76 Deg N/A
2022-01-19 14:00 N/A 72.66 µg/m3 6.04 µg/m3 14.28 °C N/A 1,018.13 mbar 1.81 m/s 209.85 Deg N/A
2022-01-19 13:00 N/A 66.02 µg/m3 7.08 µg/m3 14.33 °C N/A 1,018.98 mbar 1.97 m/s 189.87 Deg N/A
2022-01-19 12:00 N/A 60.48 µg/m3 11.07 µg/m3 14.38 °C N/A 1,019.52 mbar 1.74 m/s 166.9 Deg N/A
2022-01-19 11:00 N/A 49.95 µg/m3 19.71 µg/m3 13.95 °C N/A 1,019.84 mbar 1.61 m/s 162.57 Deg N/A
2022-01-19 10:00 N/A 11.25 µg/m3 24.04 µg/m3 12.81 °C N/A 1,019.92 mbar 0.9 m/s 173.07 Deg N/A
2022-01-19 09:00 N/A 3.28 µg/m3 15.62 µg/m3 11.57 °C N/A 1,019.50 mbar 0.28 m/s 269.52 Deg N/A
2022-01-19 08:00 N/A 2.2 µg/m3 7.95 µg/m3 10.98 °C N/A 1,019.29 mbar 0.25 m/s 266.88 Deg N/A
2022-01-19 07:00 N/A 30 µg/m3 3.99 µg/m3 11.18 °C N/A 1,018.78 mbar 0.38 m/s 329.25 Deg N/A

It is to be noted that the data is provisional and subject to quality assurance procedures. For validated data kindly refer your request to contact.air@era.org.mt